Time;durP1;ratioP1;P1;durP2;ratioP2;P2;SDS_P1;SDS_P2;PMS_P1;PMS_P2;Temp;Humidity;BMP_temperature;BMP_pressure;BME280_temperature;BME280_humidity;BME280_pressure;Samples;Min_cycle;Max_cycle;Signal;HPM_P1;HPM_P2
2024/02/19 00:01:02;;;;;;;12.23;8.53;;;8.50;99.90;;;;;;5055078;28;20454;-66
2024/02/19 00:03:31;;;;;;;10.70;8.20;;;8.50;99.90;;;;;;5055129;28;20775;-66
2024/02/19 00:05:59;;;;;;;9.40;7.53;;;8.50;99.90;;;;;;5056276;28;20561;-66
2024/02/19 00:08:28;;;;;;;11.70;7.50;;;8.50;99.90;;;;;;5056300;28;20756;-66
2024/02/19 00:10:55;;;;;;;15.17;8.63;;;8.50;99.90;;;;;;5059642;28;20459;-67
2024/02/19 00:13:23;;;;;;;13.60;7.90;;;8.40;99.90;;;;;;5060439;28;20473;-68
2024/02/19 00:15:50;;;;;;;9.87;8.33;;;8.40;99.90;;;;;;5061207;28;20477;-66
2024/02/19 00:18:18;;;;;;;13.93;8.10;;;8.50;99.90;;;;;;5056444;28;20881;-66
2024/02/19 00:20:45;;;;;;;14.33;8.13;;;8.40;99.90;;;;;;5055302;28;20944;-66
2024/02/19 00:23:12;;;;;;;13.23;7.77;;;8.40;99.90;;;;;;5055100;28;20875;-65
2024/02/19 00:25:41;;;;;;;13.70;8.70;;;8.40;99.90;;;;;;5055585;28;20462;-66
2024/02/19 00:28:10;;;;;;;10.60;8.20;;;8.40;99.90;;;;;;5055625;28;20466;-66
2024/02/19 00:30:38;;;;;;;13.90;8.33;;;8.40;99.90;;;;;;5054752;28;20466;-66
2024/02/19 00:33:06;;;;;;;19.03;9.57;;;8.30;99.90;;;;;;5054962;28;20462;-66
2024/02/19 00:35:33;;;;;;;16.03;8.00;;;8.30;99.90;;;;;;5055110;28;20484;-65
2024/02/19 00:38:00;;;;;;;11.73;7.70;;;8.30;99.90;;;;;;5054949;28;20458;-66
2024/02/19 00:40:28;;;;;;;17.53;7.80;;;8.30;99.90;;;;;;5054289;28;20465;-66
2024/02/19 00:42:56;;;;;;;15.43;6.97;;;8.30;99.90;;;;;;5055019;28;20581;-68
2024/02/19 00:45:24;;;;;;;13.93;6.23;;;8.30;99.90;;;;;;5055846;28;20468;-67
2024/02/19 00:47:51;;;;;;;12.67;7.07;;;8.20;99.90;;;;;;5055469;28;20432;-67
2024/02/19 00:50:18;;;;;;;15.07;6.07;;;8.20;99.90;;;;;;5055926;28;20462;-67
2024/02/19 00:52:46;;;;;;;15.53;6.50;;;8.10;99.90;;;;;;5054423;28;20798;-66
2024/02/19 00:55:13;;;;;;;10.13;6.10;;;8.20;99.90;;;;;;5054431;28;20433;-66
2024/02/19 00:57:40;;;;;;;13.43;6.70;;;8.20;99.90;;;;;;5054974;28;20482;-66
2024/02/19 01:00:09;;;;;;;15.07;8.40;;;8.20;99.90;;;;;;5054920;28;20511;-67
2024/02/19 01:02:37;;;;;;;17.10;8.33;;;8.20;99.90;;;;;;5054179;28;20520;-66
2024/02/19 01:05:05;;;;;;;8.83;7.73;;;8.20;99.90;;;;;;5054076;28;20458;-66
2024/02/19 01:07:32;;;;;;;16.17;8.00;;;8.10;99.90;;;;;;5054276;28;20491;-66
2024/02/19 01:10:00;;;;;;;14.60;6.40;;;8.20;99.90;;;;;;5054574;28;20516;-67
2024/02/19 01:12:28;;;;;;;15.07;7.23;;;8.10;99.90;;;;;;5053706;28;20458;-66
2024/02/19 01:14:55;;;;;;;12.67;8.10;;;8.10;99.90;;;;;;5054393;28;20468;-68
2024/02/19 01:17:24;;;;;;;11.70;6.20;;;8.10;99.90;;;;;;5054200;28;20458;-65
2024/02/19 01:19:52;;;;;;;13.23;6.90;;;8.00;99.90;;;;;;5054545;28;20502;-65
2024/02/19 01:22:19;;;;;;;11.20;5.50;;;8.00;99.90;;;;;;5054456;28;20824;-67
2024/02/19 01:24:49;;;;;;;9.70;4.50;;;7.90;99.90;;;;;;5054585;28;20788;-67
2024/02/19 01:27:16;;;;;;;10.23;4.80;;;7.80;99.90;;;;;;5053668;28;20458;-69
2024/02/19 01:29:43;;;;;;;9.73;4.40;;;7.80;99.90;;;;;;5054374;28;20556;-66
2024/02/19 01:32:11;;;;;;;8.10;4.27;;;7.70;99.90;;;;;;5054106;28;20817;-65
2024/02/19 01:34:40;;;;;;;7.93;4.13;;;7.70;99.90;;;;;;5053898;28;20507;-66
2024/02/19 01:37:07;;;;;;;10.33;3.77;;;7.70;99.90;;;;;;5053863;28;20481;-66
2024/02/19 01:39:34;;;;;;;11.20;3.70;;;7.60;99.90;;;;;;5054201;28;20455;-74
2024/02/19 01:42:03;;;;;;;12.20;4.73;;;7.60;99.90;;;;;;5054918;28;20491;-66
2024/02/19 01:44:31;;;;;;;7.83;3.63;;;7.60;99.90;;;;;;5054306;28;20589;-68
2024/02/19 01:46:59;;;;;;;15.87;3.70;;;7.50;99.90;;;;;;5054611;28;20461;-71
2024/02/19 01:49:27;;;;;;;17.37;4.27;;;7.50;99.90;;;;;;5054875;28;20829;-66
2024/02/19 01:51:57;;;;;;;11.17;3.47;;;7.50;99.90;;;;;;5055447;28;20558;-66
2024/02/19 01:54:26;;;;;;;12.00;3.47;;;7.40;99.90;;;;;;5054609;28;20518;-66
2024/02/19 01:56:54;;;;;;;11.13;3.50;;;7.40;99.90;;;;;;5054714;28;20462;-66
2024/02/19 01:59:23;;;;;;;19.57;4.50;;;7.40;99.90;;;;;;5058168;28;20535;-66
2024/02/19 02:01:51;;;;;;;15.43;4.10;;;7.30;99.90;;;;;;5057806;28;20462;-67
2024/02/19 02:04:19;;;;;;;10.73;3.07;;;7.30;99.90;;;;;;5058519;28;20588;-66
2024/02/19 02:06:48;;;;;;;10.37;3.60;;;7.30;99.90;;;;;;5058889;28;20500;-66
2024/02/19 02:09:16;;;;;;;14.23;3.80;;;7.30;99.90;;;;;;5059407;28;20462;-66
2024/02/19 02:11:44;;;;;;;9.00;4.13;;;7.30;99.90;;;;;;5061453;28;20462;-66
2024/02/19 02:14:11;;;;;;;14.57;3.90;;;7.30;99.90;;;;;;5064162;28;20458;-68
2024/02/19 02:16:38;;;;;;;10.13;3.70;;;7.30;99.90;;;;;;5063833;28;20466;-67
2024/02/19 02:19:06;;;;;;;13.37;3.90;;;7.30;99.90;;;;;;5070353;28;20487;-67
2024/02/19 02:21:33;;;;;;;7.33;3.10;;;7.20;99.90;;;;;;5073893;28;20469;-66
2024/02/19 02:24:00;;;;;;;12.00;3.20;;;7.30;99.90;;;;;;5073992;28;20474;-67
2024/02/19 02:26:30;;;;;;;18.27;3.57;;;7.20;99.90;;;;;;5075419;28;20473;-67
2024/02/19 02:28:59;;;;;;;12.93;3.70;;;7.20;99.90;;;;;;5076040;28;20754;-68
2024/02/19 02:31:26;;;;;;;17.70;4.20;;;7.20;99.90;;;;;;5075199;28;20466;-67
2024/02/19 02:33:53;;;;;;;10.90;3.70;;;7.30;99.90;;;;;;5075338;28;20457;-66
2024/02/19 02:36:20;;;;;;;9.03;3.33;;;7.30;99.90;;;;;;5075556;28;20461;-67
2024/02/19 02:38:48;;;;;;;17.30;4.40;;;7.20;99.90;;;;;;5068822;28;20790;-67
2024/02/19 02:41:16;;;;;;;8.80;3.00;;;7.20;99.90;;;;;;5066507;28;20463;-66
2024/02/19 02:43:43;;;;;;;14.73;3.40;;;7.20;99.90;;;;;;5066961;28;20953;-66
2024/02/19 02:46:12;;;;;;;16.93;4.40;;;7.20;99.90;;;;;;5062752;28;20462;-66
2024/02/19 02:48:39;;;;;;;9.17;3.47;;;7.20;99.90;;;;;;5056394;28;20485;-67
2024/02/19 02:51:07;;;;;;;11.97;4.30;;;7.20;99.90;;;;;;5056235;28;20801;-66
2024/02/19 02:53:34;;;;;;;10.60;4.00;;;7.20;99.90;;;;;;5056821;28;20517;-66
2024/02/19 02:56:01;;;;;;;10.23;3.70;;;7.20;99.90;;;;;;5056477;28;20555;-66
2024/02/19 02:58:29;;;;;;;16.30;4.57;;;7.20;99.90;;;;;;5056034;28;20825;-66
2024/02/19 03:00:56;;;;;;;14.03;4.57;;;7.20;99.90;;;;;;5056061;28;20515;-66
2024/02/19 03:03:25;;;;;;;20.00;5.63;;;7.30;99.90;;;;;;5055931;28;20494;-66
2024/02/19 03:05:52;;;;;;;15.97;6.87;;;7.20;99.90;;;;;;5056711;28;20802;-66
2024/02/19 03:08:19;;;;;;;14.90;6.23;;;7.20;99.90;;;;;;5056999;28;20548;-66
2024/02/19 03:10:47;;;;;;;14.00;7.10;;;7.20;99.90;;;;;;5057969;28;20809;-66
2024/02/19 03:13:14;;;;;;;17.57;7.57;;;7.20;99.90;;;;;;5056781;28;20528;-66
2024/02/19 03:15:42;;;;;;;11.87;6.87;;;7.20;99.90;;;;;;5056401;28;20462;-66
2024/02/19 03:18:09;;;;;;;16.13;6.20;;;7.20;99.90;;;;;;5055905;28;20458;-66
2024/02/19 03:20:38;;;;;;;15.77;6.63;;;7.20;99.90;;;;;;5056294;28;20462;-66
2024/02/19 03:23:06;;;;;;;12.83;5.83;;;7.20;99.90;;;;;;5056001;28;20458;-66
2024/02/19 03:25:36;;;;;;;12.20;5.37;;;7.20;99.90;;;;;;5055676;28;20890;-66
2024/02/19 03:28:03;;;;;;;11.63;4.77;;;7.20;99.90;;;;;;5057516;28;20461;-66
2024/02/19 03:30:31;;;;;;;13.57;5.33;;;7.10;99.90;;;;;;5058490;28;20553;-66
2024/02/19 03:32:58;;;;;;;11.00;4.10;;;7.10;99.90;;;;;;5059901;28;20465;-66
2024/02/19 03:35:25;;;;;;;13.33;3.70;;;7.00;99.90;;;;;;5062567;28;20458;-67
2024/02/19 03:37:54;;;;;;;14.93;3.80;;;7.00;99.90;;;;;;5064785;28;20462;-67
2024/02/19 03:40:21;;;;;;;10.50;3.40;;;7.00;99.90;;;;;;5069475;28;20441;-67
2024/02/19 03:42:48;;;;;;;14.60;3.43;;;7.00;99.90;;;;;;5073319;28;20458;-66
2024/02/19 03:45:16;;;;;;;9.40;3.20;;;7.10;99.90;;;;;;5074317;28;20486;-67
2024/02/19 03:47:43;;;;;;;8.60;3.00;;;7.00;99.90;;;;;;5074163;28;20454;-66
2024/02/19 03:50:11;;;;;;;11.87;3.37;;;7.10;99.90;;;;;;5074251;28;20474;-67
2024/02/19 03:52:38;;;;;;;13.53;4.27;;;7.00;99.90;;;;;;5073651;28;20471;-66
2024/02/19 03:55:08;;;;;;;11.03;3.30;;;7.10;99.90;;;;;;5073641;28;20467;-67
2024/02/19 03:57:35;;;;;;;14.57;3.60;;;7.10;99.90;;;;;;5074766;28;20467;-67
2024/02/19 04:00:04;;;;;;;8.40;3.03;;;7.10;99.90;;;;;;5073749;28;20485;-67
2024/02/19 04:02:32;;;;;;;9.60;3.70;;;7.10;99.90;;;;;;5070502;28;20492;-67
2024/02/19 04:04:59;;;;;;;6.90;3.30;;;7.10;99.90;;;;;;5070793;28;20553;-67
2024/02/19 04:07:26;;;;;;;10.90;3.20;;;7.10;99.90;;;;;;5067924;28;20530;-67
2024/02/19 04:09:53;;;;;;;11.17;3.00;;;7.10;99.90;;;;;;5067037;28;20907;-67
2024/02/19 04:12:22;;;;;;;15.33;4.80;;;7.10;99.90;;;;;;5065936;28;20462;-67
2024/02/19 04:14:49;;;;;;;10.03;4.13;;;7.10;99.90;;;;;;5065856;28;20554;-67
2024/02/19 04:17:17;;;;;;;10.57;2.73;;;7.10;99.90;;;;;;5063882;28;20489;-67
2024/02/19 04:19:44;;;;;;;13.63;4.20;;;7.20;99.90;;;;;;5063757;28;20669;-67
2024/02/19 04:22:11;;;;;;;12.17;3.17;;;7.10;99.90;;;;;;5064534;28;20937;-67
2024/02/19 04:24:39;;;;;;;10.30;3.83;;;7.20;99.90;;;;;;5062109;28;20490;-67
2024/02/19 04:27:06;;;;;;;11.40;3.40;;;7.20;99.90;;;;;;5060462;28;20462;-67
2024/02/19 04:29:35;;;;;;;12.60;3.77;;;7.20;99.90;;;;;;5057244;28;20557;-67
2024/02/19 04:32:02;;;;;;;12.37;4.07;;;7.20;99.90;;;;;;5056350;28;20511;-67
2024/02/19 04:34:29;;;;;;;12.73;4.23;;;7.20;99.90;;;;;;5055593;28;20490;-67
2024/02/19 04:36:57;;;;;;;16.20;4.17;;;7.20;99.90;;;;;;5055329;28;20455;-67
2024/02/19 04:39:24;;;;;;;11.03;4.97;;;7.20;99.90;;;;;;5055039;28;20493;-67
2024/02/19 04:41:51;;;;;;;12.80;3.90;;;7.20;99.90;;;;;;5055515;28;20498;-67
2024/02/19 04:44:18;;;;;;;10.70;4.30;;;7.20;99.90;;;;;;5055537;28;20584;-67
2024/02/19 04:46:48;;;;;;;9.33;4.73;;;7.20;99.90;;;;;;5055417;28;20458;-67
2024/02/19 04:49:15;;;;;;;23.97;6.83;;;7.30;99.90;;;;;;5054828;28;20462;-67
2024/02/19 04:51:42;;;;;;;16.73;5.60;;;7.30;99.90;;;;;;5055151;28;20490;-66
2024/02/19 04:54:10;;;;;;;16.83;7.07;;;7.30;99.90;;;;;;5054627;28;20561;-67
2024/02/19 04:56:37;;;;;;;21.03;6.20;;;7.40;99.90;;;;;;5054298;28;20899;-67
2024/02/19 04:59:04;;;;;;;12.67;5.30;;;7.40;99.90;;;;;;5054282;28;20454;-67
2024/02/19 05:01:31;;;;;;;16.13;6.67;;;7.30;99.90;;;;;;5054088;28;20556;-67
2024/02/19 05:04:00;;;;;;;18.53;6.70;;;7.40;99.90;;;;;;5053610;28;21002;-67
2024/02/19 05:06:29;;;;;;;17.87;6.43;;;7.40;99.90;;;;;;5054652;28;20500;-67
2024/02/19 05:08:56;;;;;;;11.80;6.00;;;7.40;99.90;;;;;;5054449;28;20501;-67
2024/02/19 05:11:23;;;;;;;11.67;5.90;;;7.40;99.90;;;;;;5054166;28;20560;-67
2024/02/19 05:13:50;;;;;;;21.83;6.97;;;7.50;99.90;;;;;;5054571;28;20946;-67
2024/02/19 05:16:18;;;;;;;17.20;6.40;;;7.40;99.90;;;;;;5054406;28;20458;-67
2024/02/19 05:18:46;;;;;;;16.03;8.17;;;7.50;99.90;;;;;;5053936;28;20462;-66
2024/02/19 05:21:15;;;;;;;20.13;7.83;;;7.50;99.90;;;;;;5054346;28;20784;-67
2024/02/19 05:23:42;;;;;;;24.03;8.07;;;7.50;99.90;;;;;;5053710;28;20459;-67
2024/02/19 05:26:09;;;;;;;19.17;8.17;;;7.50;99.90;;;;;;5054308;28;20533;-66
2024/02/19 05:28:36;;;;;;;19.63;9.03;;;7.50;99.90;;;;;;5054045;28;20491;-67
2024/02/19 05:31:04;;;;;;;12.27;8.60;;;7.50;99.90;;;;;;5054268;28;20454;-67
2024/02/19 05:33:31;;;;;;;14.83;8.77;;;7.50;99.90;;;;;;5056066;28;20455;-67
2024/02/19 05:35:59;;;;;;;16.00;10.13;;;7.50;99.90;;;;;;5057653;28;20890;-67
2024/02/19 05:38:27;;;;;;;24.33;10.83;;;7.50;99.90;;;;;;5057542;28;20450;-67
2024/02/19 05:40:55;;;;;;;23.23;10.23;;;7.50;99.90;;;;;;5057459;28;20501;-67
2024/02/19 05:43:22;;;;;;;19.03;10.40;;;7.60;99.90;;;;;;5057312;28;20494;-67
2024/02/19 05:45:49;;;;;;;16.60;10.43;;;7.50;99.90;;;;;;5057440;28;20530;-66
2024/02/19 05:48:16;;;;;;;24.07;10.90;;;7.50;99.90;;;;;;5056857;28;20903;-67
2024/02/19 05:50:44;;;;;;;24.80;12.77;;;7.60;99.90;;;;;;5057446;28;20741;-67
2024/02/19 05:53:11;;;;;;;25.03;11.20;;;7.60;99.90;;;;;;5056410;28;20986;-66
2024/02/19 05:55:40;;;;;;;18.10;10.93;;;7.60;99.90;;;;;;5055707;28;20458;-67
2024/02/19 05:58:07;;;;;;;22.70;10.80;;;7.60;99.90;;;;;;5056180;28;20489;-66
2024/02/19 06:00:34;;;;;;;25.47;10.50;;;7.60;99.90;;;;;;5055740;28;20903;-66
2024/02/19 06:03:04;;;;;;;21.60;10.10;;;7.60;99.90;;;;;;5055129;28;20545;-66
2024/02/19 06:05:31;;;;;;;17.77;10.17;;;7.70;99.90;;;;;;5056096;28;20485;-66
2024/02/19 06:07:59;;;;;;;16.80;8.40;;;7.60;99.90;;;;;;5058273;28;20458;-67
2024/02/19 06:10:26;;;;;;;19.93;9.30;;;7.60;99.90;;;;;;5063011;28;20458;-67
2024/02/19 06:12:55;;;;;;;18.20;9.47;;;7.60;99.90;;;;;;5067678;28;20487;-67
2024/02/19 06:15:24;;;;;;;22.00;10.93;;;7.60;99.90;;;;;;5071725;28;20454;-67
2024/02/19 06:17:51;;;;;;;19.43;10.27;;;7.70;99.90;;;;;;5063040;28;20458;-67
2024/02/19 06:20:19;;;;;;;21.87;10.07;;;7.70;99.90;;;;;;5057670;28;20458;-67
2024/02/19 06:22:46;;;;;;;22.80;11.30;;;7.60;99.90;;;;;;5057769;28;20458;-66
2024/02/19 06:25:13;;;;;;;20.20;11.20;;;7.70;99.90;;;;;;5057680;28;20590;-66
2024/02/19 06:27:41;;;;;;;22.37;11.50;;;7.70;99.90;;;;;;5057836;28;20458;-66
2024/02/19 06:30:10;;;;;;;21.60;11.70;;;7.70;99.90;;;;;;5058003;28;20530;-66
2024/02/19 06:32:37;;;;;;;33.20;13.67;;;7.70;99.90;;;;;;5056919;28;20526;-66
2024/02/19 06:35:05;;;;;;;27.90;14.00;;;7.70;99.90;;;;;;5058503;28;20454;-67
2024/02/19 06:37:33;;;;;;;24.20;14.37;;;7.80;99.90;;;;;;5056553;28;20548;-67
2024/02/19 06:40:00;;;;;;;27.80;14.97;;;7.80;99.90;;;;;;5055201;28;20809;-66
2024/02/19 06:42:27;;;;;;;28.50;14.23;;;7.70;99.90;;;;;;5054783;28;20883;-67
2024/02/19 06:44:55;;;;;;;35.83;16.50;;;7.80;99.90;;;;;;5054481;28;20766;-67
2024/02/19 06:47:23;;;;;;;31.80;15.20;;;7.70;99.90;;;;;;5053807;28;20519;-66
2024/02/19 06:49:51;;;;;;;24.27;13.70;;;7.70;99.90;;;;;;5053354;28;20463;-65
2024/02/19 06:52:22;;;;;;;30.17;13.67;;;7.70;99.90;;;;;;5053171;28;20493;-64
2024/02/19 06:54:50;;;;;;;22.93;12.97;;;7.70;99.90;;;;;;5007182;28;1304788;-66
2024/02/19 06:57:17;;;;;;;21.60;12.00;;;7.80;99.90;;;;;;5052654;28;20505;-66
2024/02/19 06:59:44;;;;;;;23.90;12.43;;;7.70;99.90;;;;;;5052796;28;20942;-65
2024/02/19 07:02:12;;;;;;;24.30;14.23;;;7.70;99.90;;;;;;5053435;28;20462;-65
2024/02/19 07:04:41;;;;;;;26.63;12.63;;;7.70;99.90;;;;;;5053993;28;20668;-65
2024/02/19 07:07:09;;;;;;;23.10;13.13;;;7.80;99.90;;;;;;5054411;28;20458;-66
2024/02/19 07:09:37;;;;;;;20.10;11.67;;;7.70;99.90;;;;;;5054791;28;20458;-65
2024/02/19 07:12:05;;;;;;;25.33;14.90;;;7.80;99.90;;;;;;5055911;28;20465;-66
2024/02/19 07:14:33;;;;;;;25.93;14.47;;;7.80;99.90;;;;;;5055264;28;20493;-65
2024/02/19 07:17:00;;;;;;;22.60;14.83;;;7.80;99.90;;;;;;5055902;28;20462;-66
2024/02/19 07:19:29;;;;;;;21.43;13.17;;;7.80;99.90;;;;;;5055770;28;20466;-66
2024/02/19 07:21:57;;;;;;;21.93;14.40;;;7.70;99.90;;;;;;5056151;28;20496;-66
2024/02/19 07:24:26;;;;;;;21.63;13.87;;;7.70;99.90;;;;;;5055506;28;20468;-66
2024/02/19 07:26:54;;;;;;;18.40;12.77;;;7.80;99.90;;;;;;5035609;28;20459;-66
2024/02/19 07:29:22;;;;;;;18.30;11.90;;;7.80;99.90;;;;;;5035824;28;20512;-65
2024/02/19 07:31:51;;;;;;;16.33;12.07;;;7.90;99.90;;;;;;5036213;28;20494;-67
2024/02/19 07:34:18;;;;;;;20.83;13.20;;;7.80;99.90;;;;;;5036115;28;20596;-66
2024/02/19 07:36:45;;;;;;;17.40;11.70;;;7.80;99.90;;;;;;5034960;28;20459;-66
2024/02/19 07:39:15;;;;;;;15.07;12.10;;;7.80;99.90;;;;;;5035111;28;20528;-66
2024/02/19 07:41:42;;;;;;;22.33;12.40;;;7.90;99.90;;;;;;5034747;28;20908;-66
2024/02/19 07:44:10;;;;;;;19.80;12.67;;;7.90;99.90;;;;;;5034864;28;20463;-66
2024/02/19 07:46:37;;;;;;;22.87;12.50;;;8.00;99.90;;;;;;5034040;28;20501;-66
2024/02/19 07:49:05;;;;;;;19.60;13.43;;;8.00;99.90;;;;;;5034902;28;20466;-67
2024/02/19 07:51:32;;;;;;;18.27;12.67;;;8.00;99.90;;;;;;5034885;28;20459;-67
2024/02/19 07:54:00;;;;;;;19.83;13.20;;;8.10;99.90;;;;;;5033442;28;20989;-67
2024/02/19 07:56:28;;;;;;;25.83;14.97;;;8.10;99.90;;;;;;5033617;28;20793;-67
2024/02/19 07:58:56;;;;;;;26.73;16.87;;;8.10;99.90;;;;;;5034303;28;20459;-67
2024/02/19 08:01:23;;;;;;;23.00;16.87;;;8.00;99.90;;;;;;5053003;28;20762;-68
2024/02/19 08:03:50;;;;;;;28.10;17.43;;;8.00;99.90;;;;;;5053234;28;20470;-67
2024/02/19 08:06:18;;;;;;;30.80;17.77;;;8.10;99.90;;;;;;5052931;28;20490;-67
2024/02/19 08:08:45;;;;;;;29.70;18.00;;;8.10;99.90;;;;;;5052955;28;20493;-67
2024/02/19 08:11:13;;;;;;;29.50;18.70;;;8.10;99.90;;;;;;5053404;28;20501;-67
2024/02/19 08:13:43;;;;;;;30.80;15.27;;;8.10;99.90;;;;;;5053404;28;20817;-67
2024/02/19 08:16:11;;;;;;;22.43;13.20;;;8.20;99.90;;;;;;5053410;28;20531;-67
2024/02/19 08:18:39;;;;;;;19.90;10.67;;;8.20;99.90;;;;;;5053445;28;20486;-68
2024/02/19 08:21:06;;;;;;;29.83;12.40;;;8.30;99.90;;;;;;5054541;28;20829;-67
2024/02/19 08:23:34;;;;;;;23.23;12.00;;;8.30;99.90;;;;;;5054253;28;20822;-69
2024/02/19 08:26:02;;;;;;;22.93;11.70;;;8.30;99.90;;;;;;5055224;28;20534;-67
2024/02/19 08:28:29;;;;;;;21.37;10.80;;;8.40;99.90;;;;;;5054501;28;20910;-67
2024/02/19 08:30:58;;;;;;;23.90;11.67;;;8.40;99.90;;;;;;5053309;28;20503;-68
2024/02/19 08:33:25;;;;;;;21.20;11.00;;;8.40;99.90;;;;;;5053683;28;20498;-68
2024/02/19 08:35:52;;;;;;;23.30;10.27;;;8.40;99.90;;;;;;5054899;28;20450;-68
2024/02/19 08:38:20;;;;;;;17.73;10.90;;;8.30;99.90;;;;;;5055009;28;20458;-70
2024/02/19 08:40:48;;;;;;;18.23;9.40;;;8.40;99.90;;;;;;5054062;28;20465;-70
2024/02/19 08:43:15;;;;;;;25.00;9.87;;;8.50;99.90;;;;;;5054492;28;20459;-70
2024/02/19 08:45:42;;;;;;;13.67;9.17;;;8.50;99.90;;;;;;5052896;28;20513;-68
2024/02/19 08:48:11;;;;;;;15.93;8.27;;;8.60;99.90;;;;;;5052887;28;20975;-69
2024/02/19 08:50:38;;;;;;;16.20;9.10;;;8.70;99.90;;;;;;5051123;28;20511;-69
2024/02/19 08:53:06;;;;;;;20.93;10.93;;;8.70;99.90;;;;;;5051880;28;20494;-69
2024/02/19 08:55:34;;;;;;;18.30;8.30;;;8.70;99.90;;;;;;5051866;28;20500;-68
2024/02/19 08:58:00;;;;;;;23.60;9.17;;;8.80;99.90;;;;;;5051009;28;20565;-69
2024/02/19 09:00:28;;;;;;;15.53;8.33;;;8.90;99.90;;;;;;5051038;28;20458;-68
2024/02/19 09:02:55;;;;;;;24.57;8.80;;;9.00;99.90;;;;;;5052599;28;20553;-68
2024/02/19 09:05:24;;;;;;;17.23;8.50;;;9.10;99.90;;;;;;5052611;28;20564;-69
2024/02/19 09:07:51;;;;;;;15.73;8.30;;;9.00;99.90;;;;;;5052430;28;20462;-70
2024/02/19 09:10:19;;;;;;;19.17;8.80;;;9.10;99.90;;;;;;5053964;28;20507;-69
2024/02/19 09:12:46;;;;;;;19.97;9.37;;;9.10;99.90;;;;;;5054079;28;20462;-69
2024/02/19 09:15:14;;;;;;;19.70;7.70;;;9.40;99.90;;;;;;5054153;28;20454;-69
2024/02/19 09:17:42;;;;;;;13.70;7.27;;;9.30;99.90;;;;;;5054565;28;20450;-69
2024/02/19 09:20:11;;;;;;;17.50;8.77;;;9.40;99.90;;;;;;5054197;28;20462;-70
2024/02/19 09:22:42;;;;;;;19.27;9.13;;;9.30;99.90;;;;;;5054247;28;20463;-69
2024/02/19 09:25:10;;;;;;;17.20;8.27;;;9.30;99.90;;;;;;5055531;28;21004;-68
2024/02/19 09:27:38;;;;;;;17.53;7.90;;;9.40;99.90;;;;;;5055637;28;20469;-68
2024/02/19 09:30:07;;;;;;;19.37;8.27;;;9.30;99.90;;;;;;5056247;28;20962;-69
2024/02/19 09:32:35;;;;;;;14.43;8.60;;;9.30;99.90;;;;;;5054534;28;20462;-68
2024/02/19 09:35:03;;;;;;;18.17;7.97;;;9.10;99.90;;;;;;5055500;28;20458;-68
2024/02/19 09:37:30;;;;;;;19.07;8.73;;;9.20;99.90;;;;;;5056869;28;20833;-68
2024/02/19 09:39:59;;;;;;;19.93;8.30;;;9.10;99.90;;;;;;5056201;28;20867;-68
2024/02/19 09:42:27;;;;;;;29.07;9.63;;;9.00;99.90;;;;;;5056843;28;20494;-68
2024/02/19 09:44:55;;;;;;;21.73;9.20;;;9.10;99.90;;;;;;5057881;28;20556;-68
2024/02/19 09:47:23;;;;;;;20.37;9.30;;;9.10;99.90;;;;;;5057588;28;20459;-68
2024/02/19 09:49:51;;;;;;;20.60;9.97;;;9.10;99.90;;;;;;5058561;28;20475;-68
2024/02/19 09:52:24;;;;;;;23.30;9.40;;;9.00;99.90;;;;;;5065470;28;20462;-68
2024/02/19 09:54:52;;;;;;;18.13;9.33;;;9.20;99.90;;;;;;5061180;28;20542;-68
2024/02/19 09:57:22;;;;;;;19.67;9.23;;;9.30;99.90;;;;;;5061452;28;20458;-67
2024/02/19 09:59:49;;;;;;;19.53;9.53;;;9.50;99.90;;;;;;5062492;28;20463;-67
2024/02/19 10:02:19;;;;;;;20.90;11.57;;;9.60;99.90;;;;;;5059251;28;20532;-68
2024/02/19 10:04:47;;;;;;;15.10;8.73;;;9.70;99.90;;;;;;5060368;28;20462;-67
2024/02/19 10:07:18;;;;;;;17.53;10.87;;;9.60;99.90;;;;;;5062616;28;20495;-67
2024/02/19 10:09:45;;;;;;;16.97;11.57;;;9.70;99.90;;;;;;5061729;28;20486;-68
2024/02/19 10:12:13;;;;;;;22.00;13.47;;;9.70;99.90;;;;;;5061716;28;20454;-67
2024/02/19 10:14:42;;;;;;;24.47;13.13;;;9.70;99.90;;;;;;5062065;28;20469;-67
2024/02/19 10:17:11;;;;;;;29.83;12.83;;;9.80;99.90;;;;;;5059402;28;20549;-67
2024/02/19 10:19:40;;;;;;;18.37;13.60;;;9.80;99.90;;;;;;5062644;28;20470;-67
2024/02/19 10:22:09;;;;;;;27.77;14.83;;;9.80;99.90;;;;;;5064494;28;20447;-67
2024/02/19 10:24:37;;;;;;;18.40;12.00;;;10.00;99.90;;;;;;5062009;28;20462;-68
2024/02/19 10:27:05;;;;;;;25.50;12.63;;;9.90;99.90;;;;;;5062051;28;20798;-67
2024/02/19 10:29:33;;;;;;;22.60;11.70;;;10.10;99.90;;;;;;5066014;28;20465;-67
2024/02/19 10:32:01;;;;;;;21.03;10.77;;;10.20;99.90;;;;;;5063510;28;20462;-67
2024/02/19 10:34:29;;;;;;;19.53;11.97;;;10.10;99.90;;;;;;5064557;28;20433;-67
2024/02/19 10:36:56;;;;;;;18.53;11.07;;;10.20;99.90;;;;;;5063420;28;20454;-68
2024/02/19 10:39:24;;;;;;;15.10;11.10;;;10.10;99.90;;;;;;5063365;28;20454;-67
2024/02/19 10:41:52;;;;;;;15.00;11.30;;;10.20;99.90;;;;;;5067519;28;20454;-67
2024/02/19 10:44:20;;;;;;;17.80;11.83;;;10.30;99.90;;;;;;5067418;28;21178;-67
2024/02/19 10:46:48;;;;;;;19.03;11.20;;;10.20;99.90;;;;;;5061033;28;20494;-67
2024/02/19 10:49:19;;;;;;;16.20;9.87;;;10.20;99.90;;;;;;5064863;28;20515;-68
2024/02/19 10:51:47;;;;;;;16.70;10.87;;;10.20;99.90;;;;;;5062493;28;20488;-67
2024/02/19 10:54:18;;;;;;;19.60;10.80;;;10.10;99.90;;;;;;5061976;28;20487;-67
2024/02/19 10:56:46;;;;;;;18.43;11.37;;;10.00;99.90;;;;;;5063273;28;20458;-68
2024/02/19 10:59:14;;;;;;;24.17;11.63;;;10.00;99.90;;;;;;5064996;28;20465;-67
2024/02/19 11:01:44;;;;;;;19.80;11.03;;;9.90;99.90;;;;;;5068735;28;20529;-67
2024/02/19 11:04:23;;;;;;;19.00;11.90;;;9.80;99.90;;;;;;5066501;28;20440;-67
2024/02/19 11:06:52;;;;;;;18.70;10.43;;;9.80;99.90;;;;;;5067555;28;20846;-67
2024/02/19 11:09:21;;;;;;;22.87;11.33;;;10.00;99.90;;;;;;5063750;28;20470;-67
2024/02/19 11:11:52;;;;;;;17.53;11.10;;;9.90;99.90;;;;;;5062554;28;20458;-67
2024/02/19 11:14:22;;;;;;;20.27;10.93;;;9.90;99.90;;;;;;5063719;28;20498;-68
2024/02/19 11:16:49;;;;;;;18.00;11.53;;;10.00;99.90;;;;;;5064174;28;20458;-67
2024/02/19 11:19:18;;;;;;;18.53;11.00;;;10.00;99.90;;;;;;5063829;28;20490;-68
2024/02/19 11:21:47;;;;;;;23.07;10.90;;;9.90;99.90;;;;;;5063045;28;20465;-68
2024/02/19 11:24:14;;;;;;;19.77;10.83;;;9.90;99.90;;;;;;5061895;28;20465;-67
2024/02/19 11:26:42;;;;;;;17.93;11.17;;;9.90;99.90;;;;;;5062285;28;20494;-67
2024/02/19 11:29:14;;;;;;;28.70;12.60;;;9.90;99.90;;;;;;5061488;28;20458;-68
2024/02/19 11:31:43;;;;;;;22.20;10.57;;;9.90;99.90;;;;;;5061278;28;20465;-67
2024/02/19 11:34:14;;;;;;;19.40;10.20;;;9.80;99.90;;;;;;5062013;28;20474;-67
2024/02/19 11:36:43;;;;;;;15.07;9.87;;;9.90;99.90;;;;;;5063140;28;20465;-67
2024/02/19 11:39:13;;;;;;;16.33;9.63;;;10.00;99.90;;;;;;5059282;28;20749;-68
2024/02/19 11:41:43;;;;;;;20.03;10.50;;;10.00;99.90;;;;;;5054288;28;20459;-69
2024/02/19 11:44:12;;;;;;;20.30;10.23;;;10.20;99.90;;;;;;5055283;28;20461;-69
2024/02/19 11:46:40;;;;;;;17.30;9.73;;;10.30;99.90;;;;;;5050237;28;20490;-69
2024/02/19 11:49:08;;;;;;;21.50;9.20;;;10.50;99.90;;;;;;5045854;28;20466;-70
2024/02/19 11:51:38;;;;;;;21.30;10.83;;;10.40;99.90;;;;;;5042604;28;20459;-70
2024/02/19 11:54:08;;;;;;;17.80;9.73;;;10.40;99.90;;;;;;5035028;28;20486;-68
2024/02/19 11:56:44;;;;;;;17.80;10.50;;;10.40;99.90;;;;;;5042126;28;20813;-69
2024/02/19 11:59:11;;;;;;;18.13;10.70;;;10.40;99.90;;;;;;5051415;28;20454;-69
2024/02/19 12:01:39;;;;;;;25.53;11.73;;;10.40;99.90;;;;;;5053544;28;20847;-69
2024/02/19 12:04:07;;;;;;;19.10;9.60;;;10.50;99.90;;;;;;5053858;28;20454;-69
2024/02/19 12:06:38;;;;;;;21.40;11.10;;;10.40;99.90;;;;;;5053906;28;20493;-70
2024/02/19 12:09:08;;;;;;;16.60;10.07;;;10.40;99.90;;;;;;5053775;28;20553;-70
2024/02/19 12:11:35;;;;;;;17.13;10.80;;;10.30;99.90;;;;;;5054329;28;20545;-71
2024/02/19 12:14:06;;;;;;;25.80;11.70;;;10.40;99.90;;;;;;5054377;28;20454;-71
2024/02/19 12:16:34;;;;;;;16.40;10.67;;;10.30;99.90;;;;;;5053866;28;20457;-65
2024/02/19 12:19:02;;;;;;;17.00;11.27;;;10.10;99.90;;;;;;5052567;28;20451;-65
2024/02/19 12:21:30;;;;;;;22.37;11.33;;;10.20;99.90;;;;;;5052738;28;20889;-65
2024/02/19 12:23:57;;;;;;;16.57;11.30;;;10.10;99.90;;;;;;5053133;28;20515;-64
2024/02/19 12:26:25;;;;;;;19.40;12.00;;;10.20;99.90;;;;;;5050217;28;20593;-66
2024/02/19 12:28:52;;;;;;;16.87;10.47;;;10.30;99.90;;;;;;5052490;28;20468;-66
2024/02/19 12:31:21;;;;;;;18.10;11.13;;;10.30;99.90;;;;;;5053346;28;20465;-67
2024/02/19 12:33:49;;;;;;;18.10;11.20;;;10.30;99.90;;;;;;5054144;28;20469;-66
2024/02/19 12:36:17;;;;;;;20.40;11.10;;;10.40;99.90;;;;;;5054710;28;20454;-66
2024/02/19 12:38:45;;;;;;;15.70;10.40;;;10.30;99.90;;;;;;5054579;28;20454;-66
2024/02/19 12:41:16;;;;;;;16.00;10.17;;;10.20;99.90;;;;;;5052706;28;20522;-66
2024/02/19 12:43:45;;;;;;;12.90;10.07;;;10.20;99.90;;;;;;5052944;28;20458;-66